sensor_id;sensor_type;location;lat;lon;timestamp;P1;durP1;ratioP1;P2;durP2;ratioP2
73597;SDS011;61874;48.146;11.594;2022-09-09T21:15:48;4.00;;;1.00;;
73597;SDS011;61874;48.146;11.594;2022-09-09T21:18:14;3.13;;;1.20;;
73597;SDS011;61874;48.146;11.594;2022-09-09T21:20:41;2.10;;;0.77;;
73597;SDS011;61874;48.146;11.594;2022-09-09T21:23:08;4.18;;;1.17;;
73597;SDS011;61874;48.146;11.594;2022-09-09T21:25:34;2.08;;;1.00;;
73597;SDS011;61874;48.146;11.594;2022-09-09T21:28:00;1.80;;;0.90;;
73597;SDS011;61874;48.146;11.594;2022-09-09T21:30:27;2.47;;;1.00;;
73597;SDS011;61874;48.146;11.594;2022-09-09T21:32:53;2.60;;;1.20;;
73597;SDS011;61874;48.146;11.594;2022-09-09T21:35:18;2.28;;;1.00;;
73597;SDS011;61874;48.146;11.594;2022-09-09T21:37:45;5.07;;;1.20;;
73597;SDS011;61874;48.146;11.594;2022-09-09T21:40:11;4.40;;;1.20;;
73597;SDS011;61874;48.146;11.594;2022-09-09T21:42:37;2.40;;;1.15;;
73597;SDS011;61874;48.146;11.594;2022-09-09T21:45:03;4.80;;;1.23;;
73597;SDS011;61874;48.146;11.594;2022-09-09T21:47:29;1.95;;;0.93;;
73597;SDS011;61874;48.146;11.594;2022-09-09T21:49:54;2.17;;;0.80;;
73597;SDS011;61874;48.146;11.594;2022-09-09T21:52:20;4.63;;;0.90;;
73597;SDS011;61874;48.146;11.594;2022-09-09T21:54:45;3.50;;;0.90;;
73597;SDS011;61874;48.146;11.594;2022-09-09T21:57:11;2.13;;;0.90;;
73597;SDS011;61874;48.146;11.594;2022-09-09T21:59:37;5.47;;;0.90;;
73597;SDS011;61874;48.146;11.594;2022-09-09T22:02:04;1.52;;;0.77;;
73597;SDS011;61874;48.146;11.594;2022-09-09T22:04:30;3.10;;;1.02;;
73597;SDS011;61874;48.146;11.594;2022-09-09T22:06:55;2.92;;;0.90;;
73597;SDS011;61874;48.146;11.594;2022-09-09T22:09:20;4.03;;;1.27;;
73597;SDS011;61874;48.146;11.594;2022-09-09T22:11:46;2.67;;;0.90;;
73597;SDS011;61874;48.146;11.594;2022-09-09T22:14:12;3.05;;;1.00;;
73597;SDS011;61874;48.146;11.594;2022-09-09T22:16:37;2.08;;;1.00;;
73597;SDS011;61874;48.146;11.594;2022-09-09T22:19:03;3.80;;;1.13;;
73597;SDS011;61874;48.146;11.594;2022-09-09T22:21:29;2.30;;;1.02;;
73597;SDS011;61874;48.146;11.594;2022-09-09T22:23:57;1.73;;;0.75;;
73597;SDS011;61874;48.146;11.594;2022-09-09T22:26:25;2.78;;;1.10;;
73597;SDS011;61874;48.146;11.594;2022-09-09T22:28:52;1.58;;;0.90;;
73597;SDS011;61874;48.146;11.594;2022-09-09T22:31:18;2.60;;;0.80;;
73597;SDS011;61874;48.146;11.594;2022-09-09T22:33:46;2.25;;;0.90;;
73597;SDS011;61874;48.146;11.594;2022-09-09T22:36:12;2.13;;;0.90;;
73597;SDS011;61874;48.146;11.594;2022-09-09T22:38:37;2.90;;;1.10;;
73597;SDS011;61874;48.146;11.594;2022-09-09T22:41:04;2.42;;;0.98;;
73597;SDS011;61874;48.146;11.594;2022-09-09T22:43:30;2.70;;;1.00;;
73597;SDS011;61874;48.146;11.594;2022-09-09T22:45:59;1.52;;;0.80;;
73597;SDS011;61874;48.146;11.594;2022-09-09T22:48:26;2.92;;;0.88;;
73597;SDS011;61874;48.146;11.594;2022-09-09T22:50:52;3.83;;;0.80;;
73597;SDS011;61874;48.146;11.594;2022-09-09T22:53:18;3.17;;;0.80;;
73597;SDS011;61874;48.146;11.594;2022-09-09T22:55:53;1.73;;;0.77;;
73597;SDS011;61874;48.146;11.594;2022-09-09T22:58:24;2.95;;;0.70;;
73597;SDS011;61874;48.146;11.594;2022-09-09T23:00:54;2.00;;;0.65;;
73597;SDS011;61874;48.146;11.594;2022-09-09T23:03:26;1.58;;;0.77;;
73597;SDS011;61874;48.146;11.594;2022-09-09T23:05:54;0.77;;;0.60;;
73597;SDS011;61874;48.146;11.594;2022-09-09T23:10:47;1.85;;;0.65;;
73597;SDS011;61874;48.146;11.594;2022-09-09T23:13:13;1.65;;;0.50;;
73597;SDS011;61874;48.146;11.594;2022-09-09T23:15:38;2.33;;;0.50;;
73597;SDS011;61874;48.146;11.594;2022-09-09T23:18:04;3.13;;;0.60;;
73597;SDS011;61874;48.146;11.594;2022-09-09T23:20:30;2.08;;;0.50;;
73597;SDS011;61874;48.146;11.594;2022-09-09T23:22:56;0.85;;;0.40;;
73597;SDS011;61874;48.146;11.594;2022-09-09T23:25:21;1.45;;;0.60;;
73597;SDS011;61874;48.146;11.594;2022-09-09T23:27:47;0.50;;;0.50;;
73597;SDS011;61874;48.146;11.594;2022-09-09T23:30:12;1.33;;;0.70;;
73597;SDS011;61874;48.146;11.594;2022-09-09T23:32:38;0.70;;;0.40;;
73597;SDS011;61874;48.146;11.594;2022-09-09T23:35:03;1.67;;;0.40;;
73597;SDS011;61874;48.146;11.594;2022-09-09T23:37:30;0.63;;;0.40;;
73597;SDS011;61874;48.146;11.594;2022-09-09T23:39:55;0.98;;;0.40;;
73597;SDS011;61874;48.146;11.594;2022-09-09T23:42:21;0.82;;;0.40;;
73597;SDS011;61874;48.146;11.594;2022-09-09T23:44:47;0.32;;;0.32;;
73597;SDS011;61874;48.146;11.594;2022-09-09T23:47:12;1.30;;;0.20;;
73597;SDS011;61874;48.146;11.594;2022-09-09T23:49:38;0.77;;;0.50;;
73597;SDS011;61874;48.146;11.594;2022-09-09T23:52:04;0.43;;;0.35;;
73597;SDS011;61874;48.146;11.594;2022-09-09T23:54:33;0.85;;;0.40;;
73597;SDS011;61874;48.146;11.594;2022-09-09T23:56:59;1.35;;;0.40;;
73597;SDS011;61874;48.146;11.594;2022-09-09T23:59:24;0.43;;;0.28;;
